sensor_id;sensor_type;location;lat;lon;timestamp;P1;durP1;ratioP1;P2;durP2;ratioP2
18286;SDS011;9269;50.838;12.094;2022-11-20T00:01:37;28.50;;;19.30;;
18286;SDS011;9269;50.838;12.094;2022-11-20T00:04:05;27.73;;;19.07;;
18286;SDS011;9269;50.838;12.094;2022-11-20T00:06:34;31.07;;;19.37;;
18286;SDS011;9269;50.838;12.094;2022-11-20T00:09:02;27.53;;;19.87;;
18286;SDS011;9269;50.838;12.094;2022-11-20T00:11:31;28.50;;;18.97;;
18286;SDS011;9269;50.838;12.094;2022-11-20T00:14:01;26.67;;;17.70;;
18286;SDS011;9269;50.838;12.094;2022-11-20T00:16:31;27.07;;;17.33;;
18286;SDS011;9269;50.838;12.094;2022-11-20T00:19:01;30.40;;;18.60;;
18286;SDS011;9269;50.838;12.094;2022-11-20T00:21:29;28.83;;;18.43;;
18286;SDS011;9269;50.838;12.094;2022-11-20T00:23:58;24.27;;;16.97;;
18286;SDS011;9269;50.838;12.094;2022-11-20T00:26:27;27.77;;;17.60;;
18286;SDS011;9269;50.838;12.094;2022-11-20T00:28:57;25.57;;;17.90;;
18286;SDS011;9269;50.838;12.094;2022-11-20T00:31:28;24.60;;;17.47;;
18286;SDS011;9269;50.838;12.094;2022-11-20T00:33:58;23.67;;;16.27;;
18286;SDS011;9269;50.838;12.094;2022-11-20T00:36:27;27.27;;;17.00;;
18286;SDS011;9269;50.838;12.094;2022-11-20T00:38:59;24.93;;;16.80;;
18286;SDS011;9269;50.838;12.094;2022-11-20T00:41:28;24.70;;;16.63;;
18286;SDS011;9269;50.838;12.094;2022-11-20T00:43:57;27.63;;;17.90;;
18286;SDS011;9269;50.838;12.094;2022-11-20T00:46:26;28.67;;;17.47;;
18286;SDS011;9269;50.838;12.094;2022-11-20T00:48:55;26.47;;;17.13;;
18286;SDS011;9269;50.838;12.094;2022-11-20T00:51:26;25.40;;;16.60;;
18286;SDS011;9269;50.838;12.094;2022-11-20T00:53:55;27.10;;;18.27;;
18286;SDS011;9269;50.838;12.094;2022-11-20T00:56:24;27.40;;;19.37;;
18286;SDS011;9269;50.838;12.094;2022-11-20T00:58:53;30.23;;;19.93;;
18286;SDS011;9269;50.838;12.094;2022-11-20T01:01:23;29.63;;;18.13;;
18286;SDS011;9269;50.838;12.094;2022-11-20T01:03:54;29.77;;;19.67;;
18286;SDS011;9269;50.838;12.094;2022-11-20T01:06:26;30.00;;;20.73;;
18286;SDS011;9269;50.838;12.094;2022-11-20T01:08:57;29.07;;;19.80;;
18286;SDS011;9269;50.838;12.094;2022-11-20T01:11:27;27.70;;;18.53;;
18286;SDS011;9269;50.838;12.094;2022-11-20T01:13:58;29.30;;;20.13;;
18286;SDS011;9269;50.838;12.094;2022-11-20T01:16:28;29.57;;;19.73;;
18286;SDS011;9269;50.838;12.094;2022-11-20T01:19:00;29.67;;;19.87;;
18286;SDS011;9269;50.838;12.094;2022-11-20T01:21:31;25.53;;;18.27;;
18286;SDS011;9269;50.838;12.094;2022-11-20T01:24:01;27.00;;;18.83;;
18286;SDS011;9269;50.838;12.094;2022-11-20T01:26:32;27.73;;;18.37;;
18286;SDS011;9269;50.838;12.094;2022-11-20T01:29:02;27.43;;;19.27;;
18286;SDS011;9269;50.838;12.094;2022-11-20T01:31:32;31.03;;;19.27;;
18286;SDS011;9269;50.838;12.094;2022-11-20T01:34:03;27.10;;;17.83;;
18286;SDS011;9269;50.838;12.094;2022-11-20T01:36:35;30.33;;;19.07;;
18286;SDS011;9269;50.838;12.094;2022-11-20T01:39:06;28.10;;;18.70;;
18286;SDS011;9269;50.838;12.094;2022-11-20T01:41:37;33.13;;;19.10;;
18286;SDS011;9269;50.838;12.094;2022-11-20T01:47:17;24.40;;;16.03;;
18286;SDS011;9269;50.838;12.094;2022-11-20T01:49:50;26.90;;;16.93;;
18286;SDS011;9269;50.838;12.094;2022-11-20T01:52:24;26.90;;;17.70;;
18286;SDS011;9269;50.838;12.094;2022-11-20T01:54:57;28.30;;;19.40;;
18286;SDS011;9269;50.838;12.094;2022-11-20T01:57:29;27.53;;;18.13;;
18286;SDS011;9269;50.838;12.094;2022-11-20T02:00:03;28.50;;;19.33;;
18286;SDS011;9269;50.838;12.094;2022-11-20T02:02:34;27.00;;;17.97;;
18286;SDS011;9269;50.838;12.094;2022-11-20T02:05:06;29.23;;;19.13;;
18286;SDS011;9269;50.838;12.094;2022-11-20T02:07:43;29.40;;;19.40;;
18286;SDS011;9269;50.838;12.094;2022-11-20T02:10:13;28.43;;;19.70;;
18286;SDS011;9269;50.838;12.094;2022-11-20T02:12:42;31.17;;;19.80;;
18286;SDS011;9269;50.838;12.094;2022-11-20T02:15:28;33.17;;;19.27;;
18286;SDS011;9269;50.838;12.094;2022-11-20T02:17:57;27.67;;;18.47;;
18286;SDS011;9269;50.838;12.094;2022-11-20T02:20:25;25.70;;;17.70;;
18286;SDS011;9269;50.838;12.094;2022-11-20T02:22:56;27.10;;;18.63;;
18286;SDS011;9269;50.838;12.094;2022-11-20T02:25:29;27.90;;;17.73;;
18286;SDS011;9269;50.838;12.094;2022-11-20T02:28:01;26.60;;;17.13;;
18286;SDS011;9269;50.838;12.094;2022-11-20T02:30:30;26.50;;;16.70;;
18286;SDS011;9269;50.838;12.094;2022-11-20T02:32:58;25.43;;;17.43;;
18286;SDS011;9269;50.838;12.094;2022-11-20T02:35:40;26.80;;;17.60;;
18286;SDS011;9269;50.838;12.094;2022-11-20T02:38:11;29.17;;;16.90;;
18286;SDS011;9269;50.838;12.094;2022-11-20T02:40:42;25.60;;;17.63;;
18286;SDS011;9269;50.838;12.094;2022-11-20T02:43:10;22.20;;;15.97;;
18286;SDS011;9269;50.838;12.094;2022-11-20T02:45:39;29.53;;;18.10;;
18286;SDS011;9269;50.838;12.094;2022-11-20T02:48:07;29.83;;;19.37;;
18286;SDS011;9269;50.838;12.094;2022-11-20T02:50:36;27.33;;;17.10;;
18286;SDS011;9269;50.838;12.094;2022-11-20T02:53:06;27.50;;;17.87;;
18286;SDS011;9269;50.838;12.094;2022-11-20T02:55:34;26.47;;;17.40;;
18286;SDS011;9269;50.838;12.094;2022-11-20T02:58:05;25.77;;;17.47;;
18286;SDS011;9269;50.838;12.094;2022-11-20T03:00:33;24.57;;;16.23;;
18286;SDS011;9269;50.838;12.094;2022-11-20T03:03:02;27.73;;;16.23;;
18286;SDS011;9269;50.838;12.094;2022-11-20T03:05:30;26.40;;;17.17;;
18286;SDS011;9269;50.838;12.094;2022-11-20T03:07:59;22.07;;;15.23;;
18286;SDS011;9269;50.838;12.094;2022-11-20T03:10:27;25.13;;;16.60;;
18286;SDS011;9269;50.838;12.094;2022-11-20T03:12:56;25.47;;;16.27;;
18286;SDS011;9269;50.838;12.094;2022-11-20T03:15:26;24.50;;;15.87;;
18286;SDS011;9269;50.838;12.094;2022-11-20T03:17:54;25.87;;;16.17;;
18286;SDS011;9269;50.838;12.094;2022-11-20T03:20:23;25.40;;;15.83;;
18286;SDS011;9269;50.838;12.094;2022-11-20T03:22:53;24.57;;;15.77;;
18286;SDS011;9269;50.838;12.094;2022-11-20T03:25:21;23.73;;;15.97;;
18286;SDS011;9269;50.838;12.094;2022-11-20T03:27:50;23.17;;;14.97;;
18286;SDS011;9269;50.838;12.094;2022-11-20T03:30:18;25.17;;;14.87;;
18286;SDS011;9269;50.838;12.094;2022-11-20T03:32:53;22.77;;;15.83;;
18286;SDS011;9269;50.838;12.094;2022-11-20T03:35:22;22.43;;;13.90;;
18286;SDS011;9269;50.838;12.094;2022-11-20T03:37:51;19.93;;;13.20;;
18286;SDS011;9269;50.838;12.094;2022-11-20T03:40:19;22.83;;;15.03;;
18286;SDS011;9269;50.838;12.094;2022-11-20T03:42:48;24.60;;;14.70;;
18286;SDS011;9269;50.838;12.094;2022-11-20T03:45:16;24.57;;;13.83;;
18286;SDS011;9269;50.838;12.094;2022-11-20T03:47:46;21.73;;;14.00;;
18286;SDS011;9269;50.838;12.094;2022-11-20T03:50:16;22.77;;;14.43;;
18286;SDS011;9269;50.838;12.094;2022-11-20T03:52:44;23.10;;;14.50;;
18286;SDS011;9269;50.838;12.094;2022-11-20T03:55:13;21.17;;;14.80;;
18286;SDS011;9269;50.838;12.094;2022-11-20T03:57:42;21.57;;;14.70;;
18286;SDS011;9269;50.838;12.094;2022-11-20T04:00:10;21.73;;;14.40;;
18286;SDS011;9269;50.838;12.094;2022-11-20T04:02:40;22.03;;;14.77;;
18286;SDS011;9269;50.838;12.094;2022-11-20T04:05:09;21.97;;;15.07;;
18286;SDS011;9269;50.838;12.094;2022-11-20T04:07:38;21.60;;;14.37;;
18286;SDS011;9269;50.838;12.094;2022-11-20T04:10:07;23.17;;;15.73;;
18286;SDS011;9269;50.838;12.094;2022-11-20T04:12:36;23.80;;;15.17;;
18286;SDS011;9269;50.838;12.094;2022-11-20T04:15:04;22.47;;;14.40;;
18286;SDS011;9269;50.838;12.094;2022-11-20T04:17:33;24.33;;;15.60;;
18286;SDS011;9269;50.838;12.094;2022-11-20T04:20:03;30.70;;;17.70;;
18286;SDS011;9269;50.838;12.094;2022-11-20T04:22:32;26.30;;;16.00;;
18286;SDS011;9269;50.838;12.094;2022-11-20T04:25:02;25.27;;;16.17;;
18286;SDS011;9269;50.838;12.094;2022-11-20T04:27:31;23.33;;;16.30;;
18286;SDS011;9269;50.838;12.094;2022-11-20T04:29:59;25.57;;;16.07;;
18286;SDS011;9269;50.838;12.094;2022-11-20T04:32:28;24.47;;;15.97;;
18286;SDS011;9269;50.838;12.094;2022-11-20T04:34:56;25.07;;;15.77;;
18286;SDS011;9269;50.838;12.094;2022-11-20T04:37:25;22.53;;;15.10;;
18286;SDS011;9269;50.838;12.094;2022-11-20T04:39:53;25.03;;;15.93;;
18286;SDS011;9269;50.838;12.094;2022-11-20T04:42:23;22.20;;;14.67;;
18286;SDS011;9269;50.838;12.094;2022-11-20T04:44:57;19.90;;;14.27;;
18286;SDS011;9269;50.838;12.094;2022-11-20T04:47:26;20.50;;;14.17;;
18286;SDS011;9269;50.838;12.094;2022-11-20T04:49:54;22.30;;;13.27;;
18286;SDS011;9269;50.838;12.094;2022-11-20T04:52:23;23.00;;;14.40;;
18286;SDS011;9269;50.838;12.094;2022-11-20T04:54:51;19.97;;;12.97;;
18286;SDS011;9269;50.838;12.094;2022-11-20T04:57:20;23.63;;;14.30;;
18286;SDS011;9269;50.838;12.094;2022-11-20T04:59:50;20.57;;;13.50;;
18286;SDS011;9269;50.838;12.094;2022-11-20T05:02:18;20.07;;;13.03;;
18286;SDS011;9269;50.838;12.094;2022-11-20T05:04:48;22.07;;;14.17;;
18286;SDS011;9269;50.838;12.094;2022-11-20T05:07:16;22.07;;;14.40;;
18286;SDS011;9269;50.838;12.094;2022-11-20T05:09:45;21.30;;;14.13;;
18286;SDS011;9269;50.838;12.094;2022-11-20T05:12:14;23.90;;;15.13;;
18286;SDS011;9269;50.838;12.094;2022-11-20T05:14:42;22.60;;;15.10;;
18286;SDS011;9269;50.838;12.094;2022-11-20T05:17:12;23.47;;;16.60;;
18286;SDS011;9269;50.838;12.094;2022-11-20T05:19:40;22.37;;;14.87;;
18286;SDS011;9269;50.838;12.094;2022-11-20T05:22:09;24.70;;;15.37;;
18286;SDS011;9269;50.838;12.094;2022-11-20T05:24:37;25.50;;;15.80;;
18286;SDS011;9269;50.838;12.094;2022-11-20T05:27:06;24.87;;;15.70;;
18286;SDS011;9269;50.838;12.094;2022-11-20T05:29:34;23.80;;;14.93;;
18286;SDS011;9269;50.838;12.094;2022-11-20T05:32:04;25.60;;;14.80;;
18286;SDS011;9269;50.838;12.094;2022-11-20T05:34:36;21.83;;;14.27;;
18286;SDS011;9269;50.838;12.094;2022-11-20T05:37:05;23.53;;;14.80;;
18286;SDS011;9269;50.838;12.094;2022-11-20T05:39:34;20.87;;;14.20;;
18286;SDS011;9269;50.838;12.094;2022-11-20T05:42:02;23.30;;;15.33;;
18286;SDS011;9269;50.838;12.094;2022-11-20T05:44:48;22.80;;;14.63;;
18286;SDS011;9269;50.838;12.094;2022-11-20T05:47:17;22.70;;;15.50;;
18286;SDS011;9269;50.838;12.094;2022-11-20T05:49:49;22.97;;;15.47;;
18286;SDS011;9269;50.838;12.094;2022-11-20T05:52:17;23.57;;;15.87;;
18286;SDS011;9269;50.838;12.094;2022-11-20T05:54:46;23.63;;;15.53;;
18286;SDS011;9269;50.838;12.094;2022-11-20T05:57:14;23.13;;;16.07;;
18286;SDS011;9269;50.838;12.094;2022-11-20T05:59:44;24.53;;;15.17;;
18286;SDS011;9269;50.838;12.094;2022-11-20T06:02:12;23.40;;;14.87;;
18286;SDS011;9269;50.838;12.094;2022-11-20T06:04:41;26.37;;;16.70;;
18286;SDS011;9269;50.838;12.094;2022-11-20T06:07:11;23.17;;;16.30;;
18286;SDS011;9269;50.838;12.094;2022-11-20T06:09:39;22.97;;;15.73;;
18286;SDS011;9269;50.838;12.094;2022-11-20T06:12:08;21.27;;;14.77;;
18286;SDS011;9269;50.838;12.094;2022-11-20T06:14:36;21.73;;;14.43;;
18286;SDS011;9269;50.838;12.094;2022-11-20T06:17:05;21.40;;;13.83;;
18286;SDS011;9269;50.838;12.094;2022-11-20T06:19:33;21.80;;;14.00;;
18286;SDS011;9269;50.838;12.094;2022-11-20T06:22:03;19.80;;;13.53;;
18286;SDS011;9269;50.838;12.094;2022-11-20T06:24:33;19.73;;;13.17;;
18286;SDS011;9269;50.838;12.094;2022-11-20T06:27:01;19.93;;;13.33;;
18286;SDS011;9269;50.838;12.094;2022-11-20T06:29:30;19.17;;;12.40;;
18286;SDS011;9269;50.838;12.094;2022-11-20T06:32:00;22.80;;;13.87;;
18286;SDS011;9269;50.838;12.094;2022-11-20T06:34:28;20.53;;;13.13;;
18286;SDS011;9269;50.838;12.094;2022-11-20T06:36:57;19.93;;;13.23;;
18286;SDS011;9269;50.838;12.094;2022-11-20T06:39:25;24.90;;;13.93;;
18286;SDS011;9269;50.838;12.094;2022-11-20T06:41:55;22.70;;;15.03;;
18286;SDS011;9269;50.838;12.094;2022-11-20T06:44:25;20.77;;;14.27;;
18286;SDS011;9269;50.838;12.094;2022-11-20T06:46:53;22.83;;;14.83;;
18286;SDS011;9269;50.838;12.094;2022-11-20T06:49:22;22.20;;;14.33;;
18286;SDS011;9269;50.838;12.094;2022-11-20T06:51:50;25.80;;;15.83;;
18286;SDS011;9269;50.838;12.094;2022-11-20T06:54:19;24.87;;;14.80;;
18286;SDS011;9269;50.838;12.094;2022-11-20T06:56:47;22.87;;;15.27;;
18286;SDS011;9269;50.838;12.094;2022-11-20T06:59:17;22.13;;;15.30;;
18286;SDS011;9269;50.838;12.094;2022-11-20T07:01:47;20.60;;;13.67;;
18286;SDS011;9269;50.838;12.094;2022-11-20T07:04:16;20.60;;;13.47;;
18286;SDS011;9269;50.838;12.094;2022-11-20T07:06:45;21.80;;;13.97;;
18286;SDS011;9269;50.838;12.094;2022-11-20T07:09:13;21.40;;;13.40;;
18286;SDS011;9269;50.838;12.094;2022-11-20T07:11:43;21.83;;;13.23;;
18286;SDS011;9269;50.838;12.094;2022-11-20T07:14:11;22.73;;;13.13;;
18286;SDS011;9269;50.838;12.094;2022-11-20T07:16:41;20.53;;;13.03;;
18286;SDS011;9269;50.838;12.094;2022-11-20T07:19:10;20.43;;;12.40;;
18286;SDS011;9269;50.838;12.094;2022-11-20T07:21:38;20.40;;;12.97;;
18286;SDS011;9269;50.838;12.094;2022-11-20T07:24:07;20.67;;;12.63;;
18286;SDS011;9269;50.838;12.094;2022-11-20T07:26:35;21.57;;;13.00;;
18286;SDS011;9269;50.838;12.094;2022-11-20T07:29:03;18.80;;;13.00;;
18286;SDS011;9269;50.838;12.094;2022-11-20T07:31:32;22.07;;;14.83;;
18286;SDS011;9269;50.838;12.094;2022-11-20T07:34:02;22.33;;;14.30;;
18286;SDS011;9269;50.838;12.094;2022-11-20T07:36:31;25.40;;;15.43;;
18286;SDS011;9269;50.838;12.094;2022-11-20T07:38:59;23.60;;;15.40;;
18286;SDS011;9269;50.838;12.094;2022-11-20T07:41:28;25.37;;;15.33;;
18286;SDS011;9269;50.838;12.094;2022-11-20T07:43:56;23.27;;;15.67;;
18286;SDS011;9269;50.838;12.094;2022-11-20T07:46:25;25.00;;;16.63;;
18286;SDS011;9269;50.838;12.094;2022-11-20T07:48:53;24.80;;;16.43;;
18286;SDS011;9269;50.838;12.094;2022-11-20T07:51:24;25.70;;;17.73;;
18286;SDS011;9269;50.838;12.094;2022-11-20T07:53:53;25.13;;;16.50;;
18286;SDS011;9269;50.838;12.094;2022-11-20T07:56:22;24.30;;;16.20;;
18286;SDS011;9269;50.838;12.094;2022-11-20T07:58:51;25.80;;;17.17;;
18286;SDS011;9269;50.838;12.094;2022-11-20T08:01:19;24.60;;;16.57;;
18286;SDS011;9269;50.838;12.094;2022-11-20T08:03:48;22.93;;;14.87;;
18286;SDS011;9269;50.838;12.094;2022-11-20T08:06:16;25.20;;;15.70;;
18286;SDS011;9269;50.838;12.094;2022-11-20T08:08:47;27.00;;;15.77;;
18286;SDS011;9269;50.838;12.094;2022-11-20T08:11:16;25.50;;;14.97;;
18286;SDS011;9269;50.838;12.094;2022-11-20T08:14:08;21.67;;;14.50;;
18286;SDS011;9269;50.838;12.094;2022-11-20T08:16:40;22.47;;;15.40;;
18286;SDS011;9269;50.838;12.094;2022-11-20T08:19:12;25.47;;;15.47;;
18286;SDS011;9269;50.838;12.094;2022-11-20T08:21:42;24.30;;;15.03;;
18286;SDS011;9269;50.838;12.094;2022-11-20T08:24:13;23.30;;;14.67;;
18286;SDS011;9269;50.838;12.094;2022-11-20T08:26:42;26.47;;;14.93;;
18286;SDS011;9269;50.838;12.094;2022-11-20T08:29:12;20.70;;;15.40;;
18286;SDS011;9269;50.838;12.094;2022-11-20T08:31:45;22.70;;;14.57;;
18286;SDS011;9269;50.838;12.094;2022-11-20T08:34:16;24.53;;;15.23;;
18286;SDS011;9269;50.838;12.094;2022-11-20T08:36:49;22.90;;;15.07;;
18286;SDS011;9269;50.838;12.094;2022-11-20T08:39:24;24.13;;;15.37;;
18286;SDS011;9269;50.838;12.094;2022-11-20T08:41:56;26.77;;;15.67;;
18286;SDS011;9269;50.838;12.094;2022-11-20T08:44:25;26.70;;;15.80;;
18286;SDS011;9269;50.838;12.094;2022-11-20T08:46:55;27.97;;;16.53;;
18286;SDS011;9269;50.838;12.094;2022-11-20T08:49:24;25.70;;;16.60;;
18286;SDS011;9269;50.838;12.094;2022-11-20T08:51:53;24.73;;;16.33;;
18286;SDS011;9269;50.838;12.094;2022-11-20T08:54:22;27.30;;;16.23;;
18286;SDS011;9269;50.838;12.094;2022-11-20T08:56:52;26.13;;;15.90;;
18286;SDS011;9269;50.838;12.094;2022-11-20T08:59:21;25.83;;;17.50;;
18286;SDS011;9269;50.838;12.094;2022-11-20T09:02:10;28.97;;;17.13;;
18286;SDS011;9269;50.838;12.094;2022-11-20T09:04:42;25.17;;;16.23;;
18286;SDS011;9269;50.838;12.094;2022-11-20T09:07:10;24.23;;;16.77;;
18286;SDS011;9269;50.838;12.094;2022-11-20T09:09:40;25.07;;;16.27;;
18286;SDS011;9269;50.838;12.094;2022-11-20T09:12:10;29.97;;;17.27;;
18286;SDS011;9269;50.838;12.094;2022-11-20T09:14:39;23.10;;;16.47;;
18286;SDS011;9269;50.838;12.094;2022-11-20T09:17:09;25.47;;;16.43;;
18286;SDS011;9269;50.838;12.094;2022-11-20T09:19:40;23.43;;;15.77;;
18286;SDS011;9269;50.838;12.094;2022-11-20T09:22:10;28.80;;;16.90;;
18286;SDS011;9269;50.838;12.094;2022-11-20T09:24:42;28.83;;;16.67;;
18286;SDS011;9269;50.838;12.094;2022-11-20T09:27:12;27.57;;;17.20;;
18286;SDS011;9269;50.838;12.094;2022-11-20T09:29:41;23.63;;;15.70;;
18286;SDS011;9269;50.838;12.094;2022-11-20T09:32:10;26.60;;;16.17;;
18286;SDS011;9269;50.838;12.094;2022-11-20T09:34:38;25.93;;;16.47;;
18286;SDS011;9269;50.838;12.094;2022-11-20T09:37:07;26.03;;;17.07;;
18286;SDS011;9269;50.838;12.094;2022-11-20T09:39:36;25.80;;;16.37;;
18286;SDS011;9269;50.838;12.094;2022-11-20T09:45:04;25.67;;;16.60;;
18286;SDS011;9269;50.838;12.094;2022-11-20T09:47:55;28.97;;;18.30;;
18286;SDS011;9269;50.838;12.094;2022-11-20T09:50:32;26.10;;;17.73;;
18286;SDS011;9269;50.838;12.094;2022-11-20T09:53:12;26.10;;;17.83;;
18286;SDS011;9269;50.838;12.094;2022-11-20T09:55:43;25.80;;;17.77;;
18286;SDS011;9269;50.838;12.094;2022-11-20T09:58:16;26.87;;;18.13;;
18286;SDS011;9269;50.838;12.094;2022-11-20T10:00:53;26.83;;;18.30;;
18286;SDS011;9269;50.838;12.094;2022-11-20T10:03:29;28.93;;;18.40;;
18286;SDS011;9269;50.838;12.094;2022-11-20T10:06:05;26.00;;;17.33;;
18286;SDS011;9269;50.838;12.094;2022-11-20T10:08:41;26.00;;;17.37;;
18286;SDS011;9269;50.838;12.094;2022-11-20T10:11:17;26.80;;;17.70;;
18286;SDS011;9269;50.838;12.094;2022-11-20T10:13:56;27.70;;;18.07;;
18286;SDS011;9269;50.838;12.094;2022-11-20T10:16:40;24.40;;;16.77;;
18286;SDS011;9269;50.838;12.094;2022-11-20T10:19:20;27.67;;;19.20;;
18286;SDS011;9269;50.838;12.094;2022-11-20T10:22:01;27.17;;;18.23;;
18286;SDS011;9269;50.838;12.094;2022-11-20T10:24:42;28.93;;;19.13;;
18286;SDS011;9269;50.838;12.094;2022-11-20T10:27:24;26.63;;;18.10;;
18286;SDS011;9269;50.838;12.094;2022-11-20T10:30:14;26.97;;;18.67;;
18286;SDS011;9269;50.838;12.094;2022-11-20T10:32:46;27.67;;;18.40;;
18286;SDS011;9269;50.838;12.094;2022-11-20T10:35:20;25.20;;;17.60;;
18286;SDS011;9269;50.838;12.094;2022-11-20T10:37:55;25.40;;;17.13;;
18286;SDS011;9269;50.838;12.094;2022-11-20T10:40:28;26.43;;;17.63;;
18286;SDS011;9269;50.838;12.094;2022-11-20T10:43:03;23.93;;;16.50;;
18286;SDS011;9269;50.838;12.094;2022-11-20T10:45:44;25.60;;;18.37;;
18286;SDS011;9269;50.838;12.094;2022-11-20T10:48:26;25.80;;;18.83;;
18286;SDS011;9269;50.838;12.094;2022-11-20T10:51:05;27.97;;;18.40;;
18286;SDS011;9269;50.838;12.094;2022-11-20T10:53:44;27.33;;;19.20;;
18286;SDS011;9269;50.838;12.094;2022-11-20T10:56:20;29.17;;;19.67;;
18286;SDS011;9269;50.838;12.094;2022-11-20T10:59:02;27.50;;;19.03;;
18286;SDS011;9269;50.838;12.094;2022-11-20T11:01:41;27.03;;;18.33;;
18286;SDS011;9269;50.838;12.094;2022-11-20T11:04:15;26.80;;;18.77;;
18286;SDS011;9269;50.838;12.094;2022-11-20T11:06:58;24.57;;;18.33;;
18286;SDS011;9269;50.838;12.094;2022-11-20T11:09:35;25.40;;;17.80;;
18286;SDS011;9269;50.838;12.094;2022-11-20T11:12:09;28.80;;;18.77;;
18286;SDS011;9269;50.838;12.094;2022-11-20T11:14:43;26.23;;;18.20;;
18286;SDS011;9269;50.838;12.094;2022-11-20T11:17:27;30.90;;;21.63;;
18286;SDS011;9269;50.838;12.094;2022-11-20T11:19:58;25.30;;;18.17;;
18286;SDS011;9269;50.838;12.094;2022-11-20T11:22:29;23.83;;;17.40;;
18286;SDS011;9269;50.838;12.094;2022-11-20T11:25:00;27.47;;;19.40;;
18286;SDS011;9269;50.838;12.094;2022-11-20T11:27:29;30.33;;;19.30;;
18286;SDS011;9269;50.838;12.094;2022-11-20T11:30:02;26.47;;;17.87;;
18286;SDS011;9269;50.838;12.094;2022-11-20T11:32:43;24.83;;;17.10;;
18286;SDS011;9269;50.838;12.094;2022-11-20T11:35:19;24.67;;;17.33;;
18286;SDS011;9269;50.838;12.094;2022-11-20T11:37:53;25.03;;;17.40;;
18286;SDS011;9269;50.838;12.094;2022-11-20T11:40:31;22.67;;;16.43;;
18286;SDS011;9269;50.838;12.094;2022-11-20T11:43:04;22.37;;;16.23;;
18286;SDS011;9269;50.838;12.094;2022-11-20T11:46:02;23.00;;;16.13;;
18286;SDS011;9269;50.838;12.094;2022-11-20T11:48:41;24.43;;;16.30;;
18286;SDS011;9269;50.838;12.094;2022-11-20T11:51:19;21.60;;;16.13;;
18286;SDS011;9269;50.838;12.094;2022-11-20T11:53:49;20.93;;;15.47;;
18286;SDS011;9269;50.838;12.094;2022-11-20T11:56:22;22.47;;;15.40;;
18286;SDS011;9269;50.838;12.094;2022-11-20T11:58:52;18.90;;;13.60;;
18286;SDS011;9269;50.838;12.094;2022-11-20T12:01:26;20.97;;;15.20;;
18286;SDS011;9269;50.838;12.094;2022-11-20T12:04:04;18.27;;;13.67;;
18286;SDS011;9269;50.838;12.094;2022-11-20T12:06:39;20.00;;;14.57;;
18286;SDS011;9269;50.838;12.094;2022-11-20T12:09:14;22.43;;;14.40;;
18286;SDS011;9269;50.838;12.094;2022-11-20T12:11:47;23.53;;;16.30;;
18286;SDS011;9269;50.838;12.094;2022-11-20T12:14:24;23.83;;;16.07;;
18286;SDS011;9269;50.838;12.094;2022-11-20T12:17:02;22.50;;;15.27;;
18286;SDS011;9269;50.838;12.094;2022-11-20T12:19:34;23.07;;;15.40;;
18286;SDS011;9269;50.838;12.094;2022-11-20T12:22:05;22.43;;;15.53;;
18286;SDS011;9269;50.838;12.094;2022-11-20T12:24:46;21.30;;;15.33;;
18286;SDS011;9269;50.838;12.094;2022-11-20T12:27:28;23.23;;;16.07;;
18286;SDS011;9269;50.838;12.094;2022-11-20T12:30:21;21.80;;;15.47;;
18286;SDS011;9269;50.838;12.094;2022-11-20T12:35:51;20.80;;;14.50;;
18286;SDS011;9269;50.838;12.094;2022-11-20T12:45:14;22.67;;;16.43;;
18286;SDS011;9269;50.838;12.094;2022-11-20T12:48:01;21.67;;;15.40;;
18286;SDS011;9269;50.838;12.094;2022-11-20T12:50:43;23.33;;;15.67;;
18286;SDS011;9269;50.838;12.094;2022-11-20T12:53:43;23.27;;;16.50;;
18286;SDS011;9269;50.838;12.094;2022-11-20T12:56:24;21.57;;;15.87;;
18286;SDS011;9269;50.838;12.094;2022-11-20T12:59:05;23.57;;;16.53;;
18286;SDS011;9269;50.838;12.094;2022-11-20T13:01:49;23.53;;;16.63;;
18286;SDS011;9269;50.838;12.094;2022-11-20T13:04:25;22.80;;;16.67;;
18286;SDS011;9269;50.838;12.094;2022-11-20T13:07:13;24.90;;;16.57;;
18286;SDS011;9269;50.838;12.094;2022-11-20T13:09:45;25.97;;;16.57;;
18286;SDS011;9269;50.838;12.094;2022-11-20T13:12:17;23.93;;;16.53;;
18286;SDS011;9269;50.838;12.094;2022-11-20T13:14:54;21.53;;;15.30;;
18286;SDS011;9269;50.838;12.094;2022-11-20T13:17:33;24.27;;;15.30;;
18286;SDS011;9269;50.838;12.094;2022-11-20T13:20:14;22.87;;;15.77;;
18286;SDS011;9269;50.838;12.094;2022-11-20T13:22:45;20.97;;;15.00;;
18286;SDS011;9269;50.838;12.094;2022-11-20T13:25:25;20.97;;;15.23;;
18286;SDS011;9269;50.838;12.094;2022-11-20T13:27:55;19.20;;;13.80;;
18286;SDS011;9269;50.838;12.094;2022-11-20T13:30:26;19.10;;;14.57;;
18286;SDS011;9269;50.838;12.094;2022-11-20T13:32:56;19.17;;;14.37;;
18286;SDS011;9269;50.838;12.094;2022-11-20T13:35:29;19.53;;;14.13;;
18286;SDS011;9269;50.838;12.094;2022-11-20T13:37:59;24.63;;;20.13;;
18286;SDS011;9269;50.838;12.094;2022-11-20T13:40:31;17.93;;;12.73;;
18286;SDS011;9269;50.838;12.094;2022-11-20T13:43:02;18.47;;;13.27;;
18286;SDS011;9269;50.838;12.094;2022-11-20T13:45:36;15.30;;;11.30;;
18286;SDS011;9269;50.838;12.094;2022-11-20T13:48:15;15.97;;;11.50;;
18286;SDS011;9269;50.838;12.094;2022-11-20T13:50:53;15.67;;;11.10;;
18286;SDS011;9269;50.838;12.094;2022-11-20T13:56:33;15.67;;;11.03;;
18286;SDS011;9269;50.838;12.094;2022-11-20T13:59:13;15.83;;;11.83;;
18286;SDS011;9269;50.838;12.094;2022-11-20T14:01:56;16.23;;;11.27;;
18286;SDS011;9269;50.838;12.094;2022-11-20T14:04:26;14.93;;;11.47;;
18286;SDS011;9269;50.838;12.094;2022-11-20T14:06:57;17.63;;;12.33;;
18286;SDS011;9269;50.838;12.094;2022-11-20T14:09:26;14.60;;;11.03;;
18286;SDS011;9269;50.838;12.094;2022-11-20T14:11:57;17.73;;;11.57;;
18286;SDS011;9269;50.838;12.094;2022-11-20T14:14:26;15.93;;;10.90;;
18286;SDS011;9269;50.838;12.094;2022-11-20T14:17:07;14.37;;;10.70;;
18286;SDS011;9269;50.838;12.094;2022-11-20T14:19:45;18.00;;;10.50;;
18286;SDS011;9269;50.838;12.094;2022-11-20T14:22:18;19.33;;;12.73;;
18286;SDS011;9269;50.838;12.094;2022-11-20T14:25:03;17.33;;;11.23;;
18286;SDS011;9269;50.838;12.094;2022-11-20T14:27:37;17.40;;;12.13;;
18286;SDS011;9269;50.838;12.094;2022-11-20T14:30:12;14.50;;;10.70;;
18286;SDS011;9269;50.838;12.094;2022-11-20T14:32:43;14.90;;;10.93;;
18286;SDS011;9269;50.838;12.094;2022-11-20T14:35:13;15.67;;;11.80;;
18286;SDS011;9269;50.838;12.094;2022-11-20T14:37:46;15.77;;;11.63;;
18286;SDS011;9269;50.838;12.094;2022-11-20T14:40:23;17.37;;;12.17;;
18286;SDS011;9269;50.838;12.094;2022-11-20T14:43:14;17.17;;;12.27;;
18286;SDS011;9269;50.838;12.094;2022-11-20T14:45:57;19.50;;;12.73;;
18286;SDS011;9269;50.838;12.094;2022-11-20T14:48:29;17.10;;;11.93;;
18286;SDS011;9269;50.838;12.094;2022-11-20T14:51:01;19.67;;;13.20;;
18286;SDS011;9269;50.838;12.094;2022-11-20T14:53:30;19.13;;;12.87;;
18286;SDS011;9269;50.838;12.094;2022-11-20T14:55:59;20.53;;;13.73;;
18286;SDS011;9269;50.838;12.094;2022-11-20T14:58:32;19.30;;;13.07;;
18286;SDS011;9269;50.838;12.094;2022-11-20T15:01:01;18.50;;;12.77;;
18286;SDS011;9269;50.838;12.094;2022-11-20T15:03:32;18.30;;;12.53;;
18286;SDS011;9269;50.838;12.094;2022-11-20T15:06:02;19.70;;;13.23;;
18286;SDS011;9269;50.838;12.094;2022-11-20T15:08:31;17.47;;;11.93;;